Time;durP1;ratioP1;P1;durP2;ratioP2;P2;SDS_P1;SDS_P2;PMS_P1;PMS_P2;Temp;Humidity;BMP_temperature;BMP_pressure;BME280_temperature;BME280_humidity;BME280_pressure;Samples;Min_cycle;Max_cycle;Signal;HPM_P1;HPM_P2
2022/06/01 00:01:53;;;;;;;19.23;17.38;;;;;;;11.24;79.30;101239.75;5090353;28;20100;-64
2022/06/01 00:04:19;;;;;;;21.05;19.15;;;;;;;11.15;79.89;101238.50;5073046;28;20035;-64
2022/06/01 00:06:47;;;;;;;19.63;17.77;;;;;;;11.17;79.97;101241.03;5091555;28;20057;-64
2022/06/01 00:09:13;;;;;;;20.90;18.83;;;;;;;11.19;79.41;101242.69;5055691;28;20024;-64
2022/06/01 00:11:39;;;;;;;25.65;19.52;;;;;;;11.19;79.45;101248.00;5072722;28;20044;-64
2022/06/01 00:14:05;;;;;;;24.95;20.55;;;;;;;11.14;79.93;101247.41;5056791;28;20060;-64
2022/06/01 00:16:34;;;;;;;24.52;20.08;;;;;;;11.17;79.41;101243.72;5072252;28;20117;-64
2022/06/01 00:19:00;;;;;;;;;;;;;;;11.33;78.01;101252.50;5101384;28;20062;-64
2022/06/01 00:21:28;;;;;;;22.45;20.38;;;;;;;11.13;79.05;101251.03;5115931;28;20366;-64
2022/06/01 00:23:56;;;;;;;25.77;21.40;;;;;;;11.02;79.83;101248.97;5098171;28;20092;-64
2022/06/01 00:26:22;;;;;;;23.33;21.05;;;;;;;11.11;80.00;101256.44;5097530;28;20103;-64
2022/06/01 00:28:48;;;;;;;23.80;21.60;;;;;;;11.13;80.19;101256.34;5084349;28;20135;-65
2022/06/01 00:31:13;;;;;;;22.95;20.77;;;;;;;11.06;80.09;101253.19;5094814;28;20024;-64
2022/06/01 00:33:42;;;;;;;23.50;21.13;;;;;;;11.06;80.62;101252.31;5076824;28;20038;-64
2022/06/01 00:36:13;;;;;;;22.65;20.35;;;;;;;11.10;80.47;101253.88;5094651;28;20573;-64
2022/06/01 00:38:38;;;;;;;22.45;20.27;;;;;;;11.06;80.77;101249.66;5079220;28;20063;-64
2022/06/01 00:41:03;;;;;;;23.67;21.58;;;;;;;11.14;80.30;101252.72;5075917;28;20519;-65
2022/06/01 00:43:38;;;;;;;23.13;20.88;;;;;;;11.12;79.99;101252.00;5076660;28;20028;-64
2022/06/01 00:46:03;;;;;;;24.50;22.20;;;;;;;11.05;80.39;101243.47;5094371;28;20012;-64
2022/06/01 00:48:33;;;;;;;24.58;22.23;;;;;;;11.07;80.67;101244.25;5094271;28;20026;-64
2022/06/01 00:50:59;;;;;;;24.48;22.17;;;;;;;11.14;80.79;101242.09;5094501;28;20024;-64
2022/06/01 00:53:29;;;;;;;25.17;22.70;;;;;;;11.06;80.83;101247.88;5076618;28;20035;-64
2022/06/01 00:56:01;;;;;;;24.25;21.95;;;;;;;10.94;80.29;101242.41;5075168;28;20081;-64
2022/06/01 00:58:50;;;;;;;24.58;22.20;;;;;;;11.08;80.20;101253.94;5093689;28;20075;-64
2022/06/01 01:01:19;;;;;;;24.75;22.42;;;;;;;10.97;80.01;101248.41;5094133;28;20065;-64
2022/06/01 01:03:49;;;;;;;;;;;;;;;11.20;78.40;101249.69;5094486;28;20070;-64
2022/06/01 01:06:20;;;;;;;23.23;20.83;;;;;;;10.97;79.80;101247.53;5094496;28;19912;-64
2022/06/01 01:08:51;;;;;;;23.73;21.40;;;;;;;10.80;80.84;101246.72;5093038;28;20056;-64
2022/06/01 01:11:22;;;;;;;24.27;21.90;;;;;;;10.88;80.27;101246.25;5093751;28;20020;-64
2022/06/01 01:13:50;;;;;;;23.90;21.40;;;;;;;10.72;80.75;101230.34;5093857;28;20056;-65
2022/06/01 01:16:20;;;;;;;25.23;22.65;;;;;;;10.83;80.40;101243.03;5093898;28;20144;-64
2022/06/01 01:18:51;;;;;;;23.95;21.65;;;;;;;10.87;80.25;101255.22;5073518;28;20027;-64
2022/06/01 01:21:31;;;;;;;25.73;23.02;;;;;;;10.89;81.03;101242.69;5094032;28;20426;-64
2022/06/01 01:24:14;;;;;;;25.80;23.10;;;;;;;10.89;81.18;101230.22;5093717;28;20419;-64
2022/06/01 01:26:49;;;;;;;25.60;22.98;;;;;;;10.89;80.56;101232.03;5093387;28;20103;-64
2022/06/01 01:29:16;;;;;;;25.13;22.73;;;;;;;10.90;80.17;101236.41;5075091;28;20463;-64
2022/06/01 01:31:46;;;;;;;26.05;23.45;;;;;;;10.80;81.04;101243.22;5092387;28;20024;-65
2022/06/01 01:34:12;;;;;;;;;;;;;;;11.02;79.22;101235.69;5092086;28;20056;-64
2022/06/01 01:36:46;;;;;;;25.10;22.48;;;;;;;10.93;80.05;101236.22;5075146;28;20413;-64
2022/06/01 01:39:15;;;;;;;25.92;23.52;;;;;;;10.76;80.54;101223.03;5092072;28;20024;-64
2022/06/01 01:41:50;;;;;;;25.58;23.00;;;;;;;10.84;80.56;101236.75;5092812;28;20078;-64
2022/06/01 01:44:25;;;;;;;25.55;23.05;;;;;;;10.74;80.68;101224.94;5093300;28;20024;-64
2022/06/01 01:46:51;;;;;;;27.90;24.92;;;;;;;10.81;80.22;101244.91;5075642;28;20028;-64
2022/06/01 01:49:18;;;;;;;27.42;24.67;;;;;;;10.74;81.27;101238.25;5075367;28;20047;-64
2022/06/01 01:51:44;;;;;;;27.27;24.65;;;;;;;10.73;81.44;101242.69;5075256;28;20050;-64
2022/06/01 01:54:47;;;;;;;27.83;25.10;;;;;;;10.76;80.80;101244.31;5092789;28;20097;-64
2022/06/01 01:57:22;;;;;;;29.33;26.55;;;;;;;10.69;80.98;101246.47;5092165;28;20083;-64
2022/06/01 02:00:10;;;;;;;27.60;24.90;;;;;;;10.69;81.59;101247.34;5092177;28;20035;-64
2022/06/01 02:03:09;;;;;;;28.33;25.52;;;;;;;10.70;81.35;101250.84;5092685;28;20028;-64
2022/06/01 02:06:04;;;;;;;28.80;25.88;;;;;;;10.71;80.94;101251.69;5093056;28;20099;-64
2022/06/01 02:08:35;;;;;;;27.77;25.23;;;;;;;10.70;81.29;101245.53;5091598;28;20031;-64
2022/06/01 02:14:22;;;;;;;28.63;25.83;;;;;;;10.48;80.79;101226.44;5092018;28;20070;-64
2022/06/01 02:17:01;;;;;;;28.88;25.98;;;;;;;10.54;81.23;101240.22;5092029;28;20043;-64
2022/06/01 02:19:33;;;;;;;29.80;26.90;;;;;;;10.42;81.15;101241.78;5093034;28;20157;-64
2022/06/01 02:21:59;;;;;;;28.52;25.75;;;;;;;10.39;81.07;101236.63;5091364;28;20040;-64
2022/06/01 02:24:25;;;;;;;30.08;27.05;;;;;;;10.41;81.43;101239.19;5093085;28;20469;-64
2022/06/01 02:26:55;;;;;;;31.70;28.48;;;;;;;10.27;81.17;101234.66;5093458;28;20046;-64
2022/06/01 02:29:47;;;;;;;29.05;26.20;;;;;;;10.38;81.40;101252.66;5091310;28;20028;-64
2022/06/01 02:32:17;;;;;;;30.25;27.05;;;;;;;10.31;81.57;101246.84;5092285;28;20470;-64
2022/06/01 02:34:45;;;;;;;29.58;26.52;;;;;;;10.19;81.41;101248.34;5092280;28;20035;-64
2022/06/01 02:37:14;;;;;;;30.05;27.02;;;;;;;10.24;81.47;101245.44;5072798;28;20016;-64
2022/06/01 02:39:45;;;;;;;30.08;27.10;;;;;;;10.26;82.18;101245.34;5091841;28;20109;-64
2022/06/01 02:42:31;;;;;;;30.60;27.50;;;;;;;10.26;82.24;101245.34;5091138;28;20028;-64
2022/06/01 02:45:04;;;;;;;28.35;25.42;;;;;;;10.33;81.00;101242.31;5076413;28;20161;-64
2022/06/01 02:47:34;;;;;;;29.00;26.00;;;;;;;10.28;80.90;101244.34;5091857;28;20463;-64
2022/06/01 02:50:00;;;;;;;28.30;25.50;;;;;;;10.29;81.25;101247.84;5092324;28;20047;-64
2022/06/01 02:52:27;;;;;;;27.95;25.08;;;;;;;10.17;80.96;101242.22;5091937;28;20016;-64
2022/06/01 02:54:53;;;;;;;28.20;25.40;;;;;;;10.10;81.25;101232.91;5091856;28;20028;-64
2022/06/01 02:57:20;;;;;;;28.20;25.38;;;;;;;10.12;80.85;101239.00;5091623;28;20040;-64
2022/06/01 02:59:46;;;;;;;26.92;24.08;;;;;;;10.10;80.65;101246.19;5074494;28;20157;-64
2022/06/01 03:02:11;;;;;;;27.35;24.55;;;;;;;9.99;80.95;101236.13;5092281;28;20099;-64
2022/06/01 03:04:41;;;;;;;28.60;24.77;;;;;;;9.99;81.62;101241.44;5091987;28;20070;-64
2022/06/01 03:07:07;;;;;;;27.77;24.77;;;;;;;9.97;81.06;101238.03;5091357;28;20076;-64
2022/06/01 03:09:35;;;;;;;27.95;25.02;;;;;;;9.93;81.36;101239.13;5091768;28;20526;-64
2022/06/01 03:12:01;;;;;;;27.77;24.90;;;;;;;9.93;80.76;101243.59;5073694;28;20020;-64
2022/06/01 03:14:27;;;;;;;26.45;23.50;;;;;;;9.94;80.94;101247.94;5075070;28;20103;-64
2022/06/01 03:16:58;;;;;;;26.63;24.10;;;;;;;9.81;81.36;101247.75;5091423;28;20036;-64
2022/06/01 03:19:24;;;;;;;28.70;24.80;;;;;;;9.75;81.54;101240.13;5074134;28;20052;-64
2022/06/01 03:21:52;;;;;;;28.10;24.38;;;;;;;9.72;81.57;101243.78;5091575;28;20428;-64
2022/06/01 03:24:17;;;;;;;29.10;24.13;;;;;;;9.74;81.89;101249.88;5091137;28;20081;-64
2022/06/01 03:26:43;;;;;;;26.52;23.63;;;;;;;9.74;81.49;101244.59;5089502;28;20023;-64
2022/06/01 03:29:09;;;;;;;26.70;24.10;;;;;;;9.78;81.45;101246.13;5091462;28;20028;-64
2022/06/01 03:31:35;;;;;;;26.70;23.98;;;;;;;9.65;81.45;101238.91;5090065;28;20024;-63
2022/06/01 03:34:00;;;;;;;26.90;24.08;;;;;;;9.70;81.55;101239.50;5073118;28;20028;-64
2022/06/01 03:36:26;;;;;;;26.52;22.40;;;;;;;9.68;81.99;101252.03;5072214;28;20077;-64
2022/06/01 03:38:51;;;;;;;27.52;23.70;;;;;;;9.72;81.34;101250.91;5073178;28;20028;-64
2022/06/01 03:41:18;;;;;;;25.40;22.33;;;;;;;9.68;81.88;101244.06;5091180;28;20112;-64
2022/06/01 03:46:34;;;;;;;24.67;21.83;;;;;;;9.63;81.54;101254.91;5089832;28;20040;-64
2022/06/01 03:49:00;;;;;;;25.00;21.23;;;;;;;9.61;81.97;101243.50;5090885;28;20028;-64
2022/06/01 03:51:26;;;;;;;25.05;22.55;;;;;;;9.65;81.94;101246.88;5072585;28;20020;-64
2022/06/01 03:53:52;;;;;;;23.98;21.50;;;;;;;9.55;82.05;101246.47;5089770;28;20501;-64
2022/06/01 03:56:22;;;;;;;22.88;20.45;;;;;;;9.58;82.02;101248.13;5090559;28;20441;-64
2022/06/01 03:58:51;;;;;;;24.42;21.90;;;;;;;9.64;81.55;101253.09;5090921;28;20040;-64
2022/06/01 04:01:18;;;;;;;24.50;21.40;;;;;;;9.54;81.77;101250.09;5097900;28;20036;-64
2022/06/01 04:03:44;;;;;;;23.90;20.98;;;;;;;9.51;81.85;101244.94;5091241;28;20039;-64
2022/06/01 04:06:09;;;;;;;25.25;21.60;;;;;;;9.61;81.81;101251.47;5090842;28;20106;-64
2022/06/01 04:08:35;;;;;;;23.33;20.55;;;;;;;9.58;81.64;101251.63;5091066;28;20592;-64
2022/06/01 04:11:00;;;;;;;23.75;21.23;;;;;;;9.59;81.83;101252.47;5090808;28;20483;-64
2022/06/01 04:13:27;;;;;;;26.38;22.20;;;;;;;9.53;82.11;101249.22;5072905;28;20506;-64
2022/06/01 04:15:53;;;;;;;23.42;20.17;;;;;;;9.59;82.38;101253.38;5090099;28;20157;-64
2022/06/01 04:18:18;;;;;;;24.77;20.75;;;;;;;9.51;82.23;101248.44;5090486;28;20107;-64
2022/06/01 04:20:48;;;;;;;22.08;19.80;;;;;;;9.51;82.63;101255.56;5090714;28;20035;-64
2022/06/01 04:23:13;;;;;;;23.95;20.80;;;;;;;9.52;82.50;101265.22;5089402;28;20560;-64
2022/06/01 04:25:39;;;;;;;22.70;20.38;;;;;;;9.55;82.84;101257.94;5071603;28;20052;-64
2022/06/01 04:28:05;;;;;;;22.52;19.27;;;;;;;9.59;82.62;101250.72;5069877;28;20125;-64
2022/06/01 04:30:30;;;;;;;28.38;20.20;;;;;;;9.54;82.97;101256.25;5072502;28;20054;-64
2022/06/01 04:32:57;;;;;;;22.20;19.83;;;;;;;9.62;82.93;101255.84;5089983;28;20032;-64
2022/06/01 04:35:24;;;;;;;23.90;21.08;;;;;;;9.68;82.83;101260.84;5090657;28;20023;-64
2022/06/01 04:37:50;;;;;;;23.95;20.45;;;;;;;9.63;83.24;101254.06;5090461;28;20323;-64
2022/06/01 04:40:16;;;;;;;26.17;19.70;;;;;;;9.84;83.04;101260.88;5090239;28;20081;-64
2022/06/01 04:42:42;;;;;;;26.25;19.05;;;;;;;9.84;82.74;101258.22;5088834;28;20047;-64
2022/06/01 04:45:10;;;;;;;23.65;19.30;;;;;;;9.88;82.66;101274.84;5090324;28;20059;-64
2022/06/01 04:47:37;;;;;;;21.52;19.00;;;;;;;9.86;82.55;101266.13;5089942;28;20067;-64
2022/06/01 04:50:03;;;;;;;21.90;19.58;;;;;;;9.88;83.11;101270.41;5089486;28;20016;-64
2022/06/01 04:52:30;;;;;;;24.40;19.52;;;;;;;9.89;83.30;101271.28;5091005;28;20035;-64
2022/06/01 04:54:55;;;;;;;21.27;18.83;;;;;;;9.83;83.07;101275.13;5073900;28;20052;-64
2022/06/01 04:57:21;;;;;;;21.48;17.95;;;;;;;9.76;83.76;101269.28;5071636;28;20076;-63
2022/06/01 04:59:47;;;;;;;23.00;17.88;;;;;;;9.88;83.23;101274.84;5090251;28;20024;-64
2022/06/01 05:02:13;;;;;;;20.83;17.30;;;;;;;9.83;82.86;101275.13;5055537;28;20110;-64
2022/06/01 05:04:41;;;;;;;20.30;18.10;;;;;;;9.75;83.48;101278.16;5093002;28;20024;-64
2022/06/01 05:07:07;;;;;;;18.63;16.27;;;;;;;9.83;83.34;101282.22;5092580;28;20077;-64
2022/06/01 05:09:32;;;;;;;20.95;17.30;;;;;;;9.91;83.79;101274.69;5075860;28;20032;-64
2022/06/01 05:11:58;;;;;;;19.55;17.13;;;;;;;10.01;83.59;101275.91;5092605;28;20035;-64
2022/06/01 05:14:26;;;;;;;20.27;17.42;;;;;;;10.00;83.46;101274.22;5091911;28;20027;-64
2022/06/01 05:16:58;;;;;;;21.90;16.98;;;;;;;10.07;83.86;101277.41;5093337;28;20028;-64
2022/06/01 05:19:24;;;;;;;19.45;15.73;;;;;;;10.14;83.34;101270.78;5093974;28;20103;-64
2022/06/01 05:21:49;;;;;;;19.95;15.88;;;;;;;10.24;82.72;101272.03;5093931;28;20524;-63
2022/06/01 05:24:18;;;;;;;20.63;15.80;;;;;;;10.29;83.34;101274.44;5093555;28;20364;-64
2022/06/01 05:26:43;;;;;;;20.80;16.23;;;;;;;10.37;82.88;101266.91;5075115;28;20028;-64
2022/06/01 05:29:09;;;;;;;18.65;15.85;;;;;;;10.42;83.51;101267.53;5093380;28;20027;-64
2022/06/01 05:31:35;;;;;;;22.73;16.48;;;;;;;10.45;83.02;101264.69;5075179;28;20506;-64
2022/06/01 05:34:00;;;;;;;21.33;15.40;;;;;;;10.57;82.44;101271.13;5073938;28;20032;-64
2022/06/01 05:36:26;;;;;;;17.38;14.35;;;;;;;10.68;82.50;101274.03;5075743;28;20039;-64
2022/06/01 05:38:52;;;;;;;18.98;14.68;;;;;;;10.71;82.59;101275.63;5057927;28;20028;-64
2022/06/01 05:41:20;;;;;;;17.75;14.13;;;;;;;10.82;83.14;101275.88;5093326;28;20052;-63
2022/06/01 05:43:47;;;;;;;20.40;15.07;;;;;;;10.95;83.36;101268.09;5075212;28;20043;-64
2022/06/01 05:46:12;;;;;;;16.55;14.85;;;;;;;11.11;82.83;101272.41;5091785;28;20072;-64
2022/06/01 05:48:40;;;;;;;19.85;14.35;;;;;;;11.28;81.54;101273.22;5074847;28;20028;-63
2022/06/01 05:51:06;;;;;;;17.77;14.82;;;;;;;11.33;82.02;101279.16;5075573;28;20020;-64
2022/06/01 05:53:32;;;;;;;17.98;14.73;;;;;;;11.42;82.43;101267.94;5074099;28;20036;-64
2022/06/01 05:55:58;;;;;;;15.57;14.00;;;;;;;11.63;81.76;101280.91;5092598;28;20020;-64
2022/06/01 05:58:26;;;;;;;21.73;14.88;;;;;;;11.69;82.08;101284.06;5093079;28;20036;-64
2022/06/01 06:00:54;;;;;;;19.95;14.30;;;;;;;11.90;81.34;101286.41;5092230;28;20051;-64
2022/06/01 06:03:23;;;;;;;18.33;13.60;;;;;;;12.01;80.73;101287.44;5092731;28;20034;-64
2022/06/01 06:08:34;;;;;;;20.75;14.07;;;;;;;12.10;80.87;101291.34;5092716;28;20072;-64
2022/06/01 06:10:59;;;;;;;17.48;15.05;;;;;;;12.18;81.29;101289.06;5074940;28;20020;-64
2022/06/01 06:13:25;;;;;;;19.77;14.32;;;;;;;12.23;80.87;101289.63;5072327;28;20036;-64
2022/06/01 06:15:50;;;;;;;21.15;14.40;;;;;;;12.30;81.07;101286.59;5055356;28;20028;-64
2022/06/01 06:18:16;;;;;;;17.02;14.07;;;;;;;12.35;80.32;101285.31;5092339;28;20493;-64
2022/06/01 06:20:44;;;;;;;19.15;14.60;;;;;;;12.42;81.93;101288.47;5072382;28;20024;-64
2022/06/01 06:23:10;;;;;;;18.80;13.90;;;;;;;12.50;81.59;101292.38;5057773;28;20019;-64
2022/06/01 06:25:37;;;;;;;14.88;13.05;;;;;;;12.62;80.11;101306.72;5092468;28;20055;-64
2022/06/01 06:28:05;;;;;;;17.63;13.45;;;;;;;12.63;80.65;101289.75;5091540;28;20057;-64
2022/06/01 06:30:34;;;;;;;18.58;13.45;;;;;;;12.77;79.49;101310.22;5092086;28;20478;-64
2022/06/01 06:33:00;;;;;;;15.63;12.85;;;;;;;12.74;79.16;101313.09;5091932;28;20028;-64
2022/06/01 06:35:25;;;;;;;15.98;13.35;;;;;;;12.89;79.54;101319.25;5056419;28;20111;-64
2022/06/01 06:37:55;;;;;;;17.38;12.93;;;;;;;12.86;78.73;101317.63;5073620;28;20491;-64
2022/06/01 06:40:21;;;;;;;17.58;12.65;;;;;;;12.96;79.55;101326.72;5073625;28;20107;-64
2022/06/01 06:42:48;;;;;;;19.73;12.88;;;;;;;13.06;79.11;101335.03;5073411;28;20448;-64
2022/06/01 06:45:13;;;;;;;17.25;12.93;;;;;;;13.05;78.07;101335.09;5073673;28;20063;-64
2022/06/01 06:47:40;;;;;;;18.48;12.98;;;;;;;13.13;78.44;101330.13;5091100;28;20054;-64
2022/06/01 06:50:08;;;;;;;14.85;13.10;;;;;;;13.27;77.65;101340.78;5073982;28;20360;-64
2022/06/01 06:52:34;;;;;;;18.00;13.68;;;;;;;13.32;77.22;101338.63;5074278;28;20479;-64
2022/06/01 06:55:00;;;;;;;16.70;12.45;;;;;;;13.38;78.78;101342.72;5091281;28;20039;-64
2022/06/01 06:57:25;;;;;;;17.60;11.82;;;;;;;13.49;77.32;101336.66;5091773;28;20098;-64
2022/06/01 06:59:53;;;;;;;16.40;11.60;;;;;;;13.51;76.01;101340.09;5091964;28;20020;-65
2022/06/01 07:02:21;;;;;;;16.80;11.50;;;;;;;13.49;75.40;101334.00;5091127;28;20036;-65
2022/06/01 07:04:47;;;;;;;16.13;11.90;;;;;;;13.64;75.60;101343.63;5084053;28;20019;-64
2022/06/01 07:07:14;;;;;;;13.88;11.32;;;;;;;13.68;74.59;101347.84;5061131;28;20043;-64
2022/06/01 07:09:40;;;;;;;18.15;11.77;;;;;;;13.68;75.63;101352.31;5074761;28;20059;-65
2022/06/01 07:12:06;;;;;;;15.50;12.13;;;;;;;13.79;74.69;101353.28;5104676;28;20055;-65
2022/06/01 07:14:32;;;;;;;15.60;10.85;;;;;;;13.96;74.52;101353.94;5094700;28;20595;-64
2022/06/01 07:17:01;;;;;;;16.95;11.77;;;;;;;14.03;72.87;101348.09;5091913;28;20047;-65
2022/06/01 07:19:27;;;;;;;15.52;10.80;;;;;;;14.17;72.81;101348.91;5112725;28;20147;-65
2022/06/01 07:21:53;;;;;;;13.98;11.30;;;;;;;14.20;72.64;101352.22;5073684;28;20027;-65
2022/06/01 07:24:19;;;;;;;14.15;11.02;;;;;;;14.25;71.76;101343.91;5089464;28;20032;-64
2022/06/01 07:26:45;;;;;;;12.88;10.35;;;;;;;14.37;72.92;101352.88;5072192;28;20031;-65
2022/06/01 07:29:13;;;;;;;15.98;11.68;;;;;;;14.36;70.83;101349.34;5073190;28;20015;-65
2022/06/01 07:31:39;;;;;;;12.85;9.85;;;;;;;14.46;71.96;101354.88;5090153;28;20032;-64
2022/06/01 07:34:05;;;;;;;12.63;8.32;;;;;;;14.64;70.40;101356.28;5056423;28;20390;-64
2022/06/01 07:36:31;;;;;;;14.93;8.90;;;;;;;14.59;69.30;101350.41;5091088;28;20056;-65
2022/06/01 07:44:43;;;;;;;12.43;9.48;;;;;;;14.86;68.99;101355.59;5091033;28;20559;-64
2022/06/01 07:47:10;;;;;;;13.60;8.60;;;;;;;14.85;68.89;101347.66;5088475;28;20035;-64
2022/06/01 07:49:36;;;;;;;8.60;6.05;;;;;;;14.84;67.82;101338.75;5072893;28;20020;-64
2022/06/01 07:52:03;;;;;;;8.65;6.70;;;;;;;14.81;67.00;101352.38;5090672;28;20387;-65
2022/06/01 07:54:29;;;;;;;8.25;6.57;;;;;;;14.84;67.29;101348.63;5091108;28;20042;-64
2022/06/01 07:56:56;;;;;;;8.70;7.35;;;;;;;15.00;69.48;101343.88;5088130;28;20040;-65
2022/06/01 07:59:22;;;;;;;9.70;7.15;;;;;;;15.27;67.02;101353.50;5039369;28;20039;-65
2022/06/01 08:01:47;;;;;;;10.32;7.97;;;;;;;15.14;66.49;101354.41;5072981;28;20475;-65
2022/06/01 08:04:16;;;;;;;8.43;6.50;;;;;;;15.21;66.67;101352.13;5087537;28;20114;-65
2022/06/01 08:06:41;;;;;;;8.02;5.75;;;;;;;15.35;64.66;101357.31;5111936;28;20031;-65
2022/06/01 08:09:08;;;;;;;8.40;5.90;;;;;;;15.43;66.06;101357.56;5109445;28;20574;-65
2022/06/01 08:14:17;;;;;;;7.70;6.90;;;;;;;15.13;62.02;101367.91;5095075;28;20047;-64
2022/06/01 08:16:45;;;;;;;8.15;6.80;;;;;;;15.27;63.44;101356.19;5078938;28;20040;-65
2022/06/01 08:19:12;;;;;;;11.18;6.93;;;;;;;15.28;63.49;101361.41;5061093;28;20035;-65
2022/06/01 08:21:38;;;;;;;10.20;5.43;;;;;;;15.39;62.00;101365.97;5072629;28;20020;-65
2022/06/01 08:24:04;;;;;;;5.10;4.53;;;;;;;15.64;61.04;101357.78;5090587;28;20089;-65
2022/06/01 08:26:30;;;;;;;6.03;4.75;;;;;;;15.98;61.86;101365.94;5090301;28;20019;-65
2022/06/01 08:28:55;;;;;;;6.75;4.40;;;;;;;16.01;59.46;101346.94;5096389;28;20375;-65
2022/06/01 08:31:26;;;;;;;6.10;5.22;;;;;;;15.90;60.47;101354.97;5054939;28;20036;-66
2022/06/01 08:33:55;;;;;;;7.55;6.28;;;;;;;16.06;61.71;101351.91;5056502;28;20043;-65
2022/06/01 08:36:20;;;;;;;8.52;5.88;;;;;;;16.28;60.29;101351.97;5089714;28;20028;-65
2022/06/01 08:38:46;;;;;;;8.20;6.20;;;;;;;16.30;60.59;101344.66;5073092;28;20074;-66
2022/06/01 08:41:13;;;;;;;9.65;8.20;;;;;;;16.30;60.14;101357.22;5093828;28;20031;-65
2022/06/01 08:43:54;;;;;;;8.43;6.03;;;;;;;16.20;60.30;101349.00;5075332;28;20360;-65
2022/06/01 08:46:21;;;;;;;7.30;5.70;;;;;;;16.14;62.18;101349.50;5094757;28;20214;-64
2022/06/01 08:48:50;;;;;;;6.25;5.45;;;;;;;16.21;60.86;101349.91;5092455;28;20382;-65
2022/06/01 08:51:19;;;;;;;5.30;4.80;;;;;;;16.33;56.63;101348.91;5090319;28;20024;-65
2022/06/01 08:53:47;;;;;;;7.20;4.50;;;;;;;16.42;57.17;101350.88;5100988;28;20032;-64
2022/06/01 08:56:26;;;;;;;7.60;4.60;;;;;;;16.35;57.66;101358.56;5076161;28;20036;-65
2022/06/01 08:59:12;;;;;;;5.80;4.40;;;;;;;16.60;56.57;101353.91;5067568;28;20073;-65
2022/06/01 09:01:59;;;;;;;4.78;4.00;;;;;;;16.80;55.63;101355.88;5097666;28;20059;-65
2022/06/01 09:04:47;;;;;;;5.32;4.10;;;;;;;16.90;55.50;101358.66;5085620;28;20020;-65
2022/06/01 09:07:33;;;;;;;7.85;4.05;;;;;;;16.74;55.43;101340.22;5075745;28;20375;-65
2022/06/01 09:10:31;;;;;;;5.00;3.92;;;;;;;16.80;55.89;101371.16;5093941;28;20118;-65
2022/06/01 09:13:09;;;;;;;6.10;4.13;;;;;;;16.70;54.76;101368.28;5093757;28;20486;-65
2022/06/01 09:15:55;;;;;;;5.93;4.53;;;;;;;16.62;56.27;101367.19;5076272;28;20071;-65
2022/06/01 09:18:29;;;;;;;6.80;5.03;;;;;;;16.71;55.24;101370.03;5108547;28;20028;-65
2022/06/01 09:23:42;;;;;;;5.78;4.90;;;;;;;17.12;52.14;101360.44;5092982;28;20540;-64
2022/06/01 09:26:09;;;;;;;7.43;5.43;;;;;;;17.00;54.04;101362.31;5074948;28;20019;-65
2022/06/01 09:28:41;;;;;;;9.15;5.07;;;;;;;16.82;54.83;101363.78;5072191;28;20028;-65
2022/06/01 09:31:33;;;;;;;6.40;5.65;;;;;;;16.80;55.20;101369.31;5048559;28;20029;-65
2022/06/01 09:34:22;;;;;;;8.43;5.57;;;;;;;17.05;54.86;101372.66;5032520;28;20037;-65
2022/06/01 09:37:03;;;;;;;8.40;5.57;;;;;;;16.95;55.50;101371.72;5057132;28;20072;-65
2022/06/01 09:39:32;;;;;;;7.80;5.75;;;;;;;16.99;55.08;101365.97;5049669;28;20024;-65
2022/06/01 09:42:37;;;;;;;7.70;6.05;;;;;;;16.96;56.18;101368.06;5049664;28;20486;-65
2022/06/01 09:45:20;;;;;;;7.28;5.75;;;;;;;16.84;56.80;101364.53;5001388;28;20129;-66
2022/06/01 09:47:50;;;;;;;5.82;5.32;;;;;;;16.85;54.56;101376.13;5046276;28;20036;-65
2022/06/01 09:50:32;;;;;;;6.45;5.65;;;;;;;16.69;54.36;101373.81;5021644;28;20037;-65
2022/06/01 09:53:20;;;;;;;6.95;5.97;;;;;;;16.67;54.67;101356.94;5050305;28;20039;-65
2022/06/01 09:55:57;;;;;;;8.43;5.28;;;;;;;16.85;55.63;101379.66;5047215;28;20033;-65
2022/06/01 10:06:54;;;;;;;5.70;3.42;;;;;;;16.27;57.18;101385.16;5075804;28;20128;-65
2022/06/01 10:09:25;;;;;;;4.85;2.95;;;;;;;16.27;57.26;101413.84;5077100;28;20299;-65
2022/06/01 10:11:54;;;;;;;3.97;3.50;;;;;;;16.01;57.22;101414.00;5090434;28;20019;-65
2022/06/01 10:14:32;;;;;;;3.78;3.40;;;;;;;15.91;58.91;101415.69;5076929;28;20509;-65
2022/06/01 10:16:57;;;;;;;4.93;3.70;;;;;;;15.57;59.82;101428.94;5094203;28;20027;-65
2022/06/01 10:19:29;;;;;;;4.72;4.32;;;;;;;15.40;60.01;101429.34;5092032;28;20028;-65
2022/06/01 10:22:11;;;;;;;6.03;4.45;;;;;;;15.06;61.04;101437.19;5091979;28;20475;-65
2022/06/01 10:25:14;;;;;;;6.05;4.70;;;;;;;14.73;62.57;101435.09;5091523;28;20141;-65
2022/06/01 10:27:57;;;;;;;6.72;4.68;;;;;;;14.48;66.80;101431.44;5087529;28;20036;-65
2022/06/01 10:30:30;;;;;;;4.28;3.80;;;;;;;14.34;69.00;101420.00;5091062;28;20028;-66
2022/06/01 10:33:03;;;;;;;4.70;4.30;;;;;;;14.28;69.52;101421.28;5072940;28;20051;-66
2022/06/01 10:35:43;;;;;;;4.45;4.05;;;;;;;14.46;69.47;101421.81;5070299;28;20036;-65
2022/06/01 10:38:29;;;;;;;5.43;3.85;;;;;;;14.47;70.88;101420.81;5088383;28;20455;-66
2022/06/01 10:41:14;;;;;;;6.75;4.57;;;;;;;14.54;71.55;101422.16;5090796;28;20386;-65
2022/06/01 10:43:55;;;;;;;4.68;4.15;;;;;;;14.88;75.35;101414.38;5090496;28;20546;-65
2022/06/01 10:46:23;;;;;;;5.90;3.70;;;;;;;15.35;71.41;101416.28;5091810;28;20016;-65
2022/06/01 10:49:11;;;;;;;6.15;4.50;;;;;;;15.84;68.62;101419.81;5097149;28;20035;-66
2022/06/01 10:51:37;;;;;;;4.43;3.95;;;;;;;15.74;65.28;101419.66;5076033;28;20505;-65
2022/06/01 10:54:16;;;;;;;4.05;3.75;;;;;;;15.75;66.43;101425.88;5072506;28;20110;-65
2022/06/01 10:56:42;;;;;;;5.00;3.55;;;;;;;15.81;66.50;101425.41;5089259;28;20118;-65
2022/06/01 10:59:14;;;;;;;4.88;3.83;;;;;;;15.81;65.35;101425.41;5075958;28;20059;-65
2022/06/01 11:01:51;;;;;;;4.05;3.60;;;;;;;15.73;65.47;101417.09;5090906;28;20360;-66
2022/06/01 11:04:45;;;;;;;5.07;3.88;;;;;;;15.82;66.81;101421.75;5072334;28;20020;-65
2022/06/01 11:08:02;;;;;;;4.28;3.60;;;;;;;15.91;64.47;101426.41;5090224;28;20436;-66
2022/06/01 11:10:41;;;;;;;3.10;2.80;;;;;;;15.63;62.87;101422.25;5054746;28;20071;-65
2022/06/01 11:13:13;;;;;;;;;;;;;;;15.81;61.79;101425.41;5090207;28;20049;-65
2022/06/01 11:16:06;;;;;;;3.70;2.72;;;;;;;15.35;64.52;101413.63;5072996;28;20585;-65
2022/06/01 11:18:41;;;;;;;4.07;2.42;;;;;;;15.39;63.37;101416.91;5090229;28;20089;-65
2022/06/01 11:21:29;;;;;;;2.95;2.65;;;;;;;15.50;65.29;101408.06;5089128;28;20035;-65
2022/06/01 11:24:01;;;;;;;2.70;2.42;;;;;;;15.75;65.00;101410.63;5091674;28;20027;-65
2022/06/01 11:26:41;;;;;;;3.08;2.67;;;;;;;16.15;61.01;101414.75;5089144;28;20032;-65
2022/06/01 11:29:37;;;;;;;3.03;2.72;;;;;;;16.81;64.91;101426.56;5088908;28;20379;-65
2022/06/01 11:32:11;;;;;;;2.45;2.25;;;;;;;17.13;59.58;101434.72;5091094;28;20118;-65
2022/06/01 11:34:52;;;;;;;2.15;1.90;;;;;;;17.27;56.21;101435.44;5072904;28;20705;-65
2022/06/01 11:37:34;;;;;;;2.63;1.98;;;;;;;17.34;53.53;101437.47;5072811;28;20032;-66
2022/06/01 11:40:14;;;;;;;3.55;2.05;;;;;;;17.91;54.71;101435.47;5072113;28;20020;-65
2022/06/01 11:42:43;;;;;;;3.58;1.80;;;;;;;18.15;51.32;101429.84;5090431;28;20035;-65
2022/06/01 11:45:22;;;;;;;1.90;1.80;;;;;;;18.25;54.07;101436.13;5072303;28;20536;-66
2022/06/01 11:48:09;;;;;;;3.28;2.05;;;;;;;18.37;53.09;101434.22;5089918;28;20119;-65
2022/06/01 11:50:35;;;;;;;2.20;2.10;;;;;;;18.53;51.94;101445.38;5088463;28;20360;-65
2022/06/01 11:53:07;;;;;;;2.80;2.55;;;;;;;18.83;50.44;101430.22;5090696;28;20030;-65
2022/06/01 11:55:36;;;;;;;4.82;2.72;;;;;;;19.40;48.13;101434.06;5090985;28;20115;-66
2022/06/01 11:58:12;;;;;;;3.90;2.90;;;;;;;20.10;48.66;101437.50;5071924;28;20540;-66
2022/06/01 12:00:55;;;;;;;5.25;2.42;;;;;;;20.73;47.58;101434.22;5072240;28;20024;-65
2022/06/01 12:03:24;;;;;;;2.58;2.33;;;;;;;21.04;46.18;101439.34;5072415;28;20458;-66